sensor_id;sensor_type;location;lat;lon;timestamp;P1;durP1;ratioP1;P2;durP2;ratioP2
3627;SDS011;1830;49.000;12.074;2023-07-16T00:00:39;9.93;;;4.60;;
3627;SDS011;1830;49.000;12.074;2023-07-16T00:03:05;6.93;;;4.63;;
3627;SDS011;1830;49.000;12.074;2023-07-16T00:05:32;6.38;;;4.28;;
3627;SDS011;1830;49.000;12.074;2023-07-16T00:07:59;6.80;;;4.93;;
3627;SDS011;1830;49.000;12.074;2023-07-16T00:10:27;6.63;;;4.47;;
3627;SDS011;1830;49.000;12.074;2023-07-16T00:12:54;10.27;;;4.60;;
3627;SDS011;1830;49.000;12.074;2023-07-16T00:15:21;5.82;;;4.43;;
3627;SDS011;1830;49.000;12.074;2023-07-16T00:17:48;5.55;;;3.78;;
3627;SDS011;1830;49.000;12.074;2023-07-16T00:20:15;9.38;;;4.55;;
3627;SDS011;1830;49.000;12.074;2023-07-16T00:22:42;5.60;;;4.78;;
3627;SDS011;1830;49.000;12.074;2023-07-16T00:25:08;4.78;;;4.20;;
3627;SDS011;1830;49.000;12.074;2023-07-16T00:27:37;8.32;;;4.35;;
3627;SDS011;1830;49.000;12.074;2023-07-16T00:30:04;7.38;;;4.90;;
3627;SDS011;1830;49.000;12.074;2023-07-16T00:32:31;5.40;;;4.82;;
3627;SDS011;1830;49.000;12.074;2023-07-16T00:34:58;10.27;;;4.70;;
3627;SDS011;1830;49.000;12.074;2023-07-16T00:37:25;8.98;;;5.20;;
3627;SDS011;1830;49.000;12.074;2023-07-16T00:39:51;7.95;;;4.80;;
3627;SDS011;1830;49.000;12.074;2023-07-16T00:42:18;7.47;;;4.88;;
3627;SDS011;1830;49.000;12.074;2023-07-16T00:44:46;6.40;;;4.95;;
3627;SDS011;1830;49.000;12.074;2023-07-16T00:47:13;9.88;;;4.55;;
3627;SDS011;1830;49.000;12.074;2023-07-16T00:49:40;5.82;;;4.43;;
3627;SDS011;1830;49.000;12.074;2023-07-16T00:52:07;5.25;;;4.75;;
3627;SDS011;1830;49.000;12.074;2023-07-16T00:54:37;5.20;;;4.70;;
3627;SDS011;1830;49.000;12.074;2023-07-16T00:57:04;8.57;;;4.57;;
3627;SDS011;1830;49.000;12.074;2023-07-16T00:59:31;8.35;;;4.50;;
3627;SDS011;1830;49.000;12.074;2023-07-16T01:01:59;10.68;;;5.68;;
3627;SDS011;1830;49.000;12.074;2023-07-16T01:04:26;11.50;;;6.47;;
3627;SDS011;1830;49.000;12.074;2023-07-16T01:06:55;10.82;;;5.10;;
3627;SDS011;1830;49.000;12.074;2023-07-16T01:09:24;9.25;;;5.63;;
3627;SDS011;1830;49.000;12.074;2023-07-16T01:11:51;7.70;;;5.93;;
3627;SDS011;1830;49.000;12.074;2023-07-16T01:14:19;8.88;;;5.80;;
3627;SDS011;1830;49.000;12.074;2023-07-16T01:16:47;11.13;;;5.60;;
3627;SDS011;1830;49.000;12.074;2023-07-16T01:19:15;20.08;;;6.78;;
3627;SDS011;1830;49.000;12.074;2023-07-16T01:21:43;5.25;;;4.75;;
3627;SDS011;1830;49.000;12.074;2023-07-16T01:27:17;8.10;;;5.15;;
3627;SDS011;1830;49.000;12.074;2023-07-16T01:29:57;8.68;;;5.85;;
3627;SDS011;1830;49.000;12.074;2023-07-16T01:32:27;6.53;;;4.80;;
3627;SDS011;1830;49.000;12.074;2023-07-16T01:34:56;9.63;;;5.45;;
3627;SDS011;1830;49.000;12.074;2023-07-16T01:37:23;6.57;;;5.97;;
3627;SDS011;1830;49.000;12.074;2023-07-16T01:39:50;11.50;;;5.43;;
3627;SDS011;1830;49.000;12.074;2023-07-16T01:42:17;17.92;;;5.70;;
3627;SDS011;1830;49.000;12.074;2023-07-16T01:44:44;7.25;;;5.10;;
3627;SDS011;1830;49.000;12.074;2023-07-16T01:47:13;10.82;;;5.35;;
3627;SDS011;1830;49.000;12.074;2023-07-16T01:49:45;6.18;;;5.10;;
3627;SDS011;1830;49.000;12.074;2023-07-16T01:52:12;7.03;;;5.27;;
3627;SDS011;1830;49.000;12.074;2023-07-16T01:54:39;9.52;;;5.63;;
3627;SDS011;1830;49.000;12.074;2023-07-16T01:57:06;6.90;;;4.83;;
3627;SDS011;1830;49.000;12.074;2023-07-16T01:59:32;9.23;;;4.70;;
3627;SDS011;1830;49.000;12.074;2023-07-16T02:01:59;7.03;;;5.00;;
3627;SDS011;1830;49.000;12.074;2023-07-16T02:04:27;5.38;;;4.88;;
3627;SDS011;1830;49.000;12.074;2023-07-16T02:06:54;9.03;;;5.93;;
3627;SDS011;1830;49.000;12.074;2023-07-16T02:09:21;15.90;;;5.10;;
3627;SDS011;1830;49.000;12.074;2023-07-16T02:11:48;14.40;;;5.43;;
3627;SDS011;1830;49.000;12.074;2023-07-16T02:14:15;8.00;;;5.30;;
3627;SDS011;1830;49.000;12.074;2023-07-16T02:16:41;7.00;;;5.20;;
3627;SDS011;1830;49.000;12.074;2023-07-16T02:19:08;6.53;;;5.27;;
3627;SDS011;1830;49.000;12.074;2023-07-16T02:21:36;6.28;;;5.00;;
3627;SDS011;1830;49.000;12.074;2023-07-16T02:24:03;7.60;;;5.70;;
3627;SDS011;1830;49.000;12.074;2023-07-16T02:26:30;7.20;;;5.53;;
3627;SDS011;1830;49.000;12.074;2023-07-16T02:28:57;8.97;;;5.47;;
3627;SDS011;1830;49.000;12.074;2023-07-16T02:31:24;9.05;;;5.90;;
3627;SDS011;1830;49.000;12.074;2023-07-16T02:33:51;11.67;;;5.60;;
3627;SDS011;1830;49.000;12.074;2023-07-16T02:36:18;7.40;;;5.47;;
3627;SDS011;1830;49.000;12.074;2023-07-16T02:38:46;6.13;;;5.30;;
3627;SDS011;1830;49.000;12.074;2023-07-16T02:41:12;8.60;;;5.33;;
3627;SDS011;1830;49.000;12.074;2023-07-16T02:43:39;8.67;;;6.00;;
3627;SDS011;1830;49.000;12.074;2023-07-16T02:46:06;6.35;;;5.32;;
3627;SDS011;1830;49.000;12.074;2023-07-16T02:48:33;9.93;;;6.50;;
3627;SDS011;1830;49.000;12.074;2023-07-16T02:50:59;13.13;;;6.10;;
3627;SDS011;1830;49.000;12.074;2023-07-16T02:53:26;6.53;;;5.80;;
3627;SDS011;1830;49.000;12.074;2023-07-16T02:55:54;6.40;;;5.40;;
3627;SDS011;1830;49.000;12.074;2023-07-16T02:58:21;8.03;;;5.50;;
3627;SDS011;1830;49.000;12.074;2023-07-16T03:00:48;7.87;;;6.00;;
3627;SDS011;1830;49.000;12.074;2023-07-16T03:03:15;6.83;;;6.13;;
3627;SDS011;1830;49.000;12.074;2023-07-16T03:05:41;7.37;;;6.00;;
3627;SDS011;1830;49.000;12.074;2023-07-16T03:08:08;11.20;;;6.40;;
3627;SDS011;1830;49.000;12.074;2023-07-16T03:10:35;9.50;;;6.00;;
3627;SDS011;1830;49.000;12.074;2023-07-16T03:13:03;8.23;;;5.63;;
3627;SDS011;1830;49.000;12.074;2023-07-16T03:15:30;5.80;;;5.20;;
3627;SDS011;1830;49.000;12.074;2023-07-16T03:17:56;5.93;;;5.27;;
3627;SDS011;1830;49.000;12.074;2023-07-16T03:20:23;6.10;;;5.43;;
3627;SDS011;1830;49.000;12.074;2023-07-16T03:22:50;7.57;;;5.90;;
3627;SDS011;1830;49.000;12.074;2023-07-16T03:25:17;11.00;;;6.23;;
3627;SDS011;1830;49.000;12.074;2023-07-16T03:27:43;10.47;;;6.97;;
3627;SDS011;1830;49.000;12.074;2023-07-16T03:30:12;7.37;;;5.70;;
3627;SDS011;1830;49.000;12.074;2023-07-16T03:32:39;6.03;;;5.47;;
3627;SDS011;1830;49.000;12.074;2023-07-16T03:35:05;7.07;;;5.57;;
3627;SDS011;1830;49.000;12.074;2023-07-16T03:37:32;10.73;;;5.90;;
3627;SDS011;1830;49.000;12.074;2023-07-16T03:40:11;9.33;;;6.23;;
3627;SDS011;1830;49.000;12.074;2023-07-16T03:42:38;8.00;;;6.10;;
3627;SDS011;1830;49.000;12.074;2023-07-16T03:45:06;8.70;;;6.27;;
3627;SDS011;1830;49.000;12.074;2023-07-16T03:47:35;9.53;;;6.43;;
3627;SDS011;1830;49.000;12.074;2023-07-16T03:50:02;6.37;;;5.80;;
3627;SDS011;1830;49.000;12.074;2023-07-16T03:52:29;9.53;;;6.43;;
3627;SDS011;1830;49.000;12.074;2023-07-16T03:54:56;9.33;;;6.87;;
3627;SDS011;1830;49.000;12.074;2023-07-16T03:57:23;7.10;;;6.17;;
3627;SDS011;1830;49.000;12.074;2023-07-16T03:59:49;9.30;;;6.97;;
3627;SDS011;1830;49.000;12.074;2023-07-16T04:02:16;9.60;;;7.20;;
3627;SDS011;1830;49.000;12.074;2023-07-16T04:04:44;10.20;;;6.57;;
3627;SDS011;1830;49.000;12.074;2023-07-16T04:07:11;6.90;;;6.20;;
3627;SDS011;1830;49.000;12.074;2023-07-16T04:09:38;8.10;;;6.43;;
3627;SDS011;1830;49.000;12.074;2023-07-16T04:12:05;7.43;;;6.00;;
3627;SDS011;1830;49.000;12.074;2023-07-16T04:14:33;9.03;;;6.13;;
3627;SDS011;1830;49.000;12.074;2023-07-16T04:17:00;8.30;;;5.63;;
3627;SDS011;1830;49.000;12.074;2023-07-16T04:19:26;9.20;;;6.47;;
3627;SDS011;1830;49.000;12.074;2023-07-16T04:21:55;5.60;;;5.20;;
3627;SDS011;1830;49.000;12.074;2023-07-16T04:24:22;5.20;;;4.50;;
3627;SDS011;1830;49.000;12.074;2023-07-16T04:26:52;5.80;;;5.23;;
3627;SDS011;1830;49.000;12.074;2023-07-16T04:29:19;5.07;;;4.40;;
3627;SDS011;1830;49.000;12.074;2023-07-16T04:31:48;7.10;;;4.40;;
3627;SDS011;1830;49.000;12.074;2023-07-16T04:34:15;5.43;;;3.73;;
3627;SDS011;1830;49.000;12.074;2023-07-16T04:36:44;4.43;;;4.03;;
3627;SDS011;1830;49.000;12.074;2023-07-16T04:39:14;5.63;;;4.00;;
3627;SDS011;1830;49.000;12.074;2023-07-16T04:41:41;8.37;;;4.13;;
3627;SDS011;1830;49.000;12.074;2023-07-16T04:44:07;4.07;;;3.67;;
3627;SDS011;1830;49.000;12.074;2023-07-16T04:46:34;4.80;;;3.90;;
3627;SDS011;1830;49.000;12.074;2023-07-16T04:49:01;4.43;;;4.03;;
3627;SDS011;1830;49.000;12.074;2023-07-16T04:51:29;4.57;;;4.03;;
3627;SDS011;1830;49.000;12.074;2023-07-16T04:53:55;6.90;;;3.90;;
3627;SDS011;1830;49.000;12.074;2023-07-16T04:56:23;5.90;;;3.80;;
3627;SDS011;1830;49.000;12.074;2023-07-16T04:58:50;4.00;;;3.67;;
3627;SDS011;1830;49.000;12.074;2023-07-16T05:01:17;4.07;;;3.77;;
3627;SDS011;1830;49.000;12.074;2023-07-16T05:03:45;4.23;;;3.53;;
3627;SDS011;1830;49.000;12.074;2023-07-16T05:06:12;3.50;;;3.20;;
3627;SDS011;1830;49.000;12.074;2023-07-16T05:08:39;6.30;;;2.90;;
3627;SDS011;1830;49.000;12.074;2023-07-16T05:11:05;5.13;;;3.33;;
3627;SDS011;1830;49.000;12.074;2023-07-16T05:13:34;4.43;;;3.60;;
3627;SDS011;1830;49.000;12.074;2023-07-16T05:16:00;4.20;;;3.80;;
3627;SDS011;1830;49.000;12.074;2023-07-16T05:18:27;4.13;;;3.47;;
3627;SDS011;1830;49.000;12.074;2023-07-16T05:20:54;3.10;;;2.90;;
3627;SDS011;1830;49.000;12.074;2023-07-16T05:23:21;3.07;;;2.87;;
3627;SDS011;1830;49.000;12.074;2023-07-16T05:25:48;3.20;;;2.90;;
3627;SDS011;1830;49.000;12.074;2023-07-16T05:28:15;4.97;;;2.93;;
3627;SDS011;1830;49.000;12.074;2023-07-16T05:30:44;4.97;;;2.90;;
3627;SDS011;1830;49.000;12.074;2023-07-16T05:33:11;5.70;;;2.80;;
3627;SDS011;1830;49.000;12.074;2023-07-16T05:35:38;3.63;;;3.33;;
3627;SDS011;1830;49.000;12.074;2023-07-16T05:38:05;5.37;;;4.53;;
3627;SDS011;1830;49.000;12.074;2023-07-16T05:40:32;4.90;;;4.40;;
3627;SDS011;1830;49.000;12.074;2023-07-16T05:42:59;5.53;;;4.23;;
3627;SDS011;1830;49.000;12.074;2023-07-16T05:45:26;4.03;;;3.60;;
3627;SDS011;1830;49.000;12.074;2023-07-16T05:47:54;2.97;;;2.73;;
3627;SDS011;1830;49.000;12.074;2023-07-16T05:50:20;4.30;;;2.77;;
3627;SDS011;1830;49.000;12.074;2023-07-16T05:52:47;3.03;;;2.83;;
3627;SDS011;1830;49.000;12.074;2023-07-16T05:55:14;3.50;;;2.93;;
3627;SDS011;1830;49.000;12.074;2023-07-16T05:57:41;2.90;;;2.63;;
3627;SDS011;1830;49.000;12.074;2023-07-16T06:00:08;5.17;;;2.90;;
3627;SDS011;1830;49.000;12.074;2023-07-16T06:02:35;5.30;;;3.20;;
3627;SDS011;1830;49.000;12.074;2023-07-16T06:05:04;5.73;;;2.93;;
3627;SDS011;1830;49.000;12.074;2023-07-16T06:07:31;3.00;;;2.80;;
3627;SDS011;1830;49.000;12.074;2023-07-16T06:09:58;3.30;;;2.90;;
3627;SDS011;1830;49.000;12.074;2023-07-16T06:12:25;2.80;;;2.60;;
3627;SDS011;1830;49.000;12.074;2023-07-16T06:14:53;3.00;;;2.60;;
3627;SDS011;1830;49.000;12.074;2023-07-16T06:17:19;2.77;;;2.57;;
3627;SDS011;1830;49.000;12.074;2023-07-16T06:19:46;2.40;;;2.20;;
3627;SDS011;1830;49.000;12.074;2023-07-16T06:22:16;5.00;;;2.60;;
3627;SDS011;1830;49.000;12.074;2023-07-16T06:24:43;5.83;;;2.57;;
3627;SDS011;1830;49.000;12.074;2023-07-16T06:27:10;2.93;;;2.70;;
3627;SDS011;1830;49.000;12.074;2023-07-16T06:29:36;2.90;;;2.70;;
3627;SDS011;1830;49.000;12.074;2023-07-16T06:32:04;6.50;;;2.90;;
3627;SDS011;1830;49.000;12.074;2023-07-16T06:34:31;2.80;;;2.60;;
3627;SDS011;1830;49.000;12.074;2023-07-16T06:36:58;3.00;;;2.70;;
3627;SDS011;1830;49.000;12.074;2023-07-16T06:39:26;4.50;;;2.80;;
3627;SDS011;1830;49.000;12.074;2023-07-16T06:41:53;2.77;;;2.50;;
3627;SDS011;1830;49.000;12.074;2023-07-16T06:44:19;2.80;;;2.60;;
3627;SDS011;1830;49.000;12.074;2023-07-16T06:46:47;3.43;;;2.50;;
3627;SDS011;1830;49.000;12.074;2023-07-16T06:49:14;11.43;;;2.50;;
3627;SDS011;1830;49.000;12.074;2023-07-16T06:51:41;4.90;;;2.17;;
3627;SDS011;1830;49.000;12.074;2023-07-16T06:54:07;10.57;;;2.80;;
3627;SDS011;1830;49.000;12.074;2023-07-16T06:56:36;6.83;;;2.50;;
3627;SDS011;1830;49.000;12.074;2023-07-16T06:59:02;2.70;;;2.50;;
3627;SDS011;1830;49.000;12.074;2023-07-16T07:01:29;6.47;;;2.53;;
3627;SDS011;1830;49.000;12.074;2023-07-16T07:03:56;5.93;;;3.03;;
3627;SDS011;1830;49.000;12.074;2023-07-16T07:06:23;2.97;;;2.67;;
3627;SDS011;1830;49.000;12.074;2023-07-16T07:08:49;2.80;;;2.60;;
3627;SDS011;1830;49.000;12.074;2023-07-16T07:11:16;6.73;;;3.03;;
3627;SDS011;1830;49.000;12.074;2023-07-16T07:13:44;6.13;;;2.43;;
3627;SDS011;1830;49.000;12.074;2023-07-16T07:16:11;4.20;;;3.00;;
3627;SDS011;1830;49.000;12.074;2023-07-16T07:18:38;6.20;;;2.77;;
3627;SDS011;1830;49.000;12.074;2023-07-16T07:21:04;2.40;;;2.30;;
3627;SDS011;1830;49.000;12.074;2023-07-16T07:23:31;5.70;;;2.70;;
3627;SDS011;1830;49.000;12.074;2023-07-16T07:25:58;8.23;;;2.27;;
3627;SDS011;1830;49.000;12.074;2023-07-16T07:28:25;8.73;;;2.50;;
3627;SDS011;1830;49.000;12.074;2023-07-16T07:30:53;3.83;;;2.40;;
3627;SDS011;1830;49.000;12.074;2023-07-16T07:33:19;12.63;;;2.80;;
3627;SDS011;1830;49.000;12.074;2023-07-16T07:35:46;2.33;;;1.90;;
3627;SDS011;1830;49.000;12.074;2023-07-16T07:38:13;3.07;;;2.47;;
3627;SDS011;1830;49.000;12.074;2023-07-16T07:40:42;4.60;;;2.77;;
3627;SDS011;1830;49.000;12.074;2023-07-16T07:43:09;4.10;;;2.53;;
3627;SDS011;1830;49.000;12.074;2023-07-16T07:45:35;3.40;;;2.40;;
3627;SDS011;1830;49.000;12.074;2023-07-16T07:48:04;3.80;;;2.50;;
3627;SDS011;1830;49.000;12.074;2023-07-16T07:50:31;9.30;;;2.03;;
3627;SDS011;1830;49.000;12.074;2023-07-16T07:52:57;3.90;;;2.50;;
3627;SDS011;1830;49.000;12.074;2023-07-16T07:55:24;4.83;;;2.50;;
3627;SDS011;1830;49.000;12.074;2023-07-16T07:57:51;6.93;;;3.00;;
3627;SDS011;1830;49.000;12.074;2023-07-16T08:00:18;6.73;;;2.93;;
3627;SDS011;1830;49.000;12.074;2023-07-16T08:02:46;4.40;;;2.37;;
3627;SDS011;1830;49.000;12.074;2023-07-16T08:05:14;13.60;;;2.90;;
3627;SDS011;1830;49.000;12.074;2023-07-16T08:07:41;5.70;;;2.60;;
3627;SDS011;1830;49.000;12.074;2023-07-16T08:10:08;5.70;;;2.80;;
3627;SDS011;1830;49.000;12.074;2023-07-16T08:12:35;4.90;;;2.80;;
3627;SDS011;1830;49.000;12.074;2023-07-16T08:15:02;2.70;;;2.30;;
3627;SDS011;1830;49.000;12.074;2023-07-16T08:17:29;7.53;;;3.17;;
3627;SDS011;1830;49.000;12.074;2023-07-16T08:19:56;4.70;;;2.83;;
3627;SDS011;1830;49.000;12.074;2023-07-16T08:22:24;7.40;;;2.70;;
3627;SDS011;1830;49.000;12.074;2023-07-16T08:24:50;3.97;;;2.53;;
3627;SDS011;1830;49.000;12.074;2023-07-16T08:27:17;5.40;;;3.00;;
3627;SDS011;1830;49.000;12.074;2023-07-16T08:29:45;4.27;;;2.70;;
3627;SDS011;1830;49.000;12.074;2023-07-16T08:32:11;7.20;;;2.90;;
3627;SDS011;1830;49.000;12.074;2023-07-16T08:34:38;6.70;;;3.27;;
3627;SDS011;1830;49.000;12.074;2023-07-16T08:37:05;7.53;;;2.67;;
3627;SDS011;1830;49.000;12.074;2023-07-16T08:39:33;5.20;;;2.87;;
3627;SDS011;1830;49.000;12.074;2023-07-16T08:42:00;7.80;;;2.80;;
3627;SDS011;1830;49.000;12.074;2023-07-16T08:44:27;8.57;;;3.30;;
3627;SDS011;1830;49.000;12.074;2023-07-16T08:46:55;10.63;;;3.17;;
3627;SDS011;1830;49.000;12.074;2023-07-16T08:49:22;11.97;;;4.03;;
3627;SDS011;1830;49.000;12.074;2023-07-16T08:51:49;4.73;;;3.27;;
3627;SDS011;1830;49.000;12.074;2023-07-16T08:54:17;9.70;;;4.23;;
3627;SDS011;1830;49.000;12.074;2023-07-16T08:56:46;10.77;;;4.00;;
3627;SDS011;1830;49.000;12.074;2023-07-16T08:59:14;7.10;;;3.87;;
3627;SDS011;1830;49.000;12.074;2023-07-16T09:01:41;8.97;;;3.10;;
3627;SDS011;1830;49.000;12.074;2023-07-16T09:04:08;7.60;;;3.13;;
3627;SDS011;1830;49.000;12.074;2023-07-16T09:06:35;9.80;;;4.20;;
3627;SDS011;1830;49.000;12.074;2023-07-16T09:09:02;6.20;;;3.40;;
3627;SDS011;1830;49.000;12.074;2023-07-16T09:11:29;8.30;;;3.50;;
3627;SDS011;1830;49.000;12.074;2023-07-16T09:13:57;5.73;;;3.43;;
3627;SDS011;1830;49.000;12.074;2023-07-16T09:16:31;7.50;;;2.97;;
3627;SDS011;1830;49.000;12.074;2023-07-16T09:19:04;6.27;;;2.93;;
3627;SDS011;1830;49.000;12.074;2023-07-16T09:21:32;5.80;;;3.17;;
3627;SDS011;1830;49.000;12.074;2023-07-16T09:23:59;4.23;;;2.67;;
3627;SDS011;1830;49.000;12.074;2023-07-16T09:26:26;6.10;;;3.20;;
3627;SDS011;1830;49.000;12.074;2023-07-16T09:28:53;6.43;;;3.17;;
3627;SDS011;1830;49.000;12.074;2023-07-16T09:31:21;8.13;;;3.37;;
3627;SDS011;1830;49.000;12.074;2023-07-16T09:33:48;5.13;;;3.17;;
3627;SDS011;1830;49.000;12.074;2023-07-16T09:36:22;5.23;;;3.00;;
3627;SDS011;1830;49.000;12.074;2023-07-16T09:38:50;10.93;;;3.50;;
3627;SDS011;1830;49.000;12.074;2023-07-16T09:41:19;6.80;;;3.70;;
3627;SDS011;1830;49.000;12.074;2023-07-16T09:43:47;10.30;;;3.80;;
3627;SDS011;1830;49.000;12.074;2023-07-16T09:46:14;6.37;;;3.23;;
3627;SDS011;1830;49.000;12.074;2023-07-16T09:48:42;6.87;;;3.20;;
3627;SDS011;1830;49.000;12.074;2023-07-16T09:51:10;9.40;;;2.93;;
3627;SDS011;1830;49.000;12.074;2023-07-16T09:53:38;8.83;;;4.00;;
3627;SDS011;1830;49.000;12.074;2023-07-16T09:56:07;5.93;;;2.70;;
3627;SDS011;1830;49.000;12.074;2023-07-16T09:58:36;9.00;;;3.43;;
3627;SDS011;1830;49.000;12.074;2023-07-16T10:01:03;7.47;;;3.57;;
3627;SDS011;1830;49.000;12.074;2023-07-16T10:03:31;9.90;;;3.03;;
3627;SDS011;1830;49.000;12.074;2023-07-16T10:06:06;5.90;;;3.00;;
3627;SDS011;1830;49.000;12.074;2023-07-16T10:08:33;7.03;;;3.50;;
3627;SDS011;1830;49.000;12.074;2023-07-16T10:11:00;8.57;;;2.87;;
3627;SDS011;1830;49.000;12.074;2023-07-16T10:13:27;9.47;;;3.60;;
3627;SDS011;1830;49.000;12.074;2023-07-16T10:15:55;4.30;;;2.70;;
3627;SDS011;1830;49.000;12.074;2023-07-16T10:18:23;7.20;;;3.90;;
3627;SDS011;1830;49.000;12.074;2023-07-16T10:20:52;6.70;;;3.27;;
3627;SDS011;1830;49.000;12.074;2023-07-16T10:23:20;8.67;;;3.87;;
3627;SDS011;1830;49.000;12.074;2023-07-16T10:26:00;6.23;;;3.77;;
3627;SDS011;1830;49.000;12.074;2023-07-16T10:28:30;6.10;;;3.83;;
3627;SDS011;1830;49.000;12.074;2023-07-16T10:30:57;9.30;;;3.30;;
3627;SDS011;1830;49.000;12.074;2023-07-16T10:33:24;5.50;;;2.83;;
3627;SDS011;1830;49.000;12.074;2023-07-16T10:35:51;4.13;;;3.03;;
3627;SDS011;1830;49.000;12.074;2023-07-16T10:38:18;6.87;;;2.70;;
3627;SDS011;1830;49.000;12.074;2023-07-16T10:40:46;6.33;;;3.60;;
3627;SDS011;1830;49.000;12.074;2023-07-16T10:43:13;5.40;;;3.30;;
3627;SDS011;1830;49.000;12.074;2023-07-16T10:45:41;6.90;;;3.70;;
3627;SDS011;1830;49.000;12.074;2023-07-16T10:48:10;4.67;;;3.40;;
3627;SDS011;1830;49.000;12.074;2023-07-16T10:50:37;5.13;;;3.20;;
3627;SDS011;1830;49.000;12.074;2023-07-16T10:53:04;4.67;;;3.40;;
3627;SDS011;1830;49.000;12.074;2023-07-16T10:55:30;4.67;;;2.90;;
3627;SDS011;1830;49.000;12.074;2023-07-16T10:58:05;2.80;;;2.60;;
3627;SDS011;1830;49.000;12.074;2023-07-16T11:00:36;7.40;;;3.63;;
3627;SDS011;1830;49.000;12.074;2023-07-16T11:03:03;3.90;;;3.10;;
3627;SDS011;1830;49.000;12.074;2023-07-16T11:05:30;6.23;;;2.90;;
3627;SDS011;1830;49.000;12.074;2023-07-16T11:07:57;5.67;;;3.43;;
3627;SDS011;1830;49.000;12.074;2023-07-16T11:10:24;7.73;;;3.60;;
3627;SDS011;1830;49.000;12.074;2023-07-16T11:12:57;5.90;;;3.10;;
3627;SDS011;1830;49.000;12.074;2023-07-16T11:15:33;5.57;;;3.20;;
3627;SDS011;1830;49.000;12.074;2023-07-16T11:18:01;3.90;;;3.10;;
3627;SDS011;1830;49.000;12.074;2023-07-16T11:20:28;4.50;;;2.60;;
3627;SDS011;1830;49.000;12.074;2023-07-16T11:22:57;8.27;;;3.50;;
3627;SDS011;1830;49.000;12.074;2023-07-16T11:25:24;4.83;;;3.00;;
3627;SDS011;1830;49.000;12.074;2023-07-16T11:27:53;3.40;;;2.78;;
3627;SDS011;1830;49.000;12.074;2023-07-16T11:30:22;4.00;;;2.77;;
3627;SDS011;1830;49.000;12.074;2023-07-16T11:32:51;4.78;;;2.70;;
3627;SDS011;1830;49.000;12.074;2023-07-16T11:35:18;4.27;;;2.77;;
3627;SDS011;1830;49.000;12.074;2023-07-16T11:37:46;3.00;;;2.70;;
3627;SDS011;1830;49.000;12.074;2023-07-16T11:40:14;3.50;;;2.75;;
3627;SDS011;1830;49.000;12.074;2023-07-16T11:42:42;4.88;;;2.95;;
3627;SDS011;1830;49.000;12.074;2023-07-16T11:45:14;7.47;;;3.43;;
3627;SDS011;1830;49.000;12.074;2023-07-16T11:47:42;4.97;;;3.07;;
3627;SDS011;1830;49.000;12.074;2023-07-16T11:50:28;5.50;;;3.23;;
3627;SDS011;1830;49.000;12.074;2023-07-16T11:52:55;3.35;;;3.08;;
3627;SDS011;1830;49.000;12.074;2023-07-16T11:55:26;4.28;;;2.70;;
3627;SDS011;1830;49.000;12.074;2023-07-16T11:57:51;3.90;;;3.10;;
3627;SDS011;1830;49.000;12.074;2023-07-16T12:00:18;3.50;;;3.15;;
3627;SDS011;1830;49.000;12.074;2023-07-16T12:02:46;4.03;;;3.63;;
3627;SDS011;1830;49.000;12.074;2023-07-16T12:05:16;3.20;;;2.90;;
3627;SDS011;1830;49.000;12.074;2023-07-16T12:07:44;3.83;;;3.00;;
3627;SDS011;1830;49.000;12.074;2023-07-16T12:10:11;6.18;;;3.28;;
3627;SDS011;1830;49.000;12.074;2023-07-16T12:12:38;6.55;;;3.33;;
3627;SDS011;1830;49.000;12.074;2023-07-16T12:15:05;6.07;;;3.70;;
3627;SDS011;1830;49.000;12.074;2023-07-16T12:17:33;6.00;;;3.87;;
3627;SDS011;1830;49.000;12.074;2023-07-16T12:20:00;9.43;;;3.60;;
3627;SDS011;1830;49.000;12.074;2023-07-16T12:22:27;5.57;;;3.25;;
3627;SDS011;1830;49.000;12.074;2023-07-16T12:24:55;3.50;;;2.95;;
3627;SDS011;1830;49.000;12.074;2023-07-16T12:27:22;7.05;;;2.97;;
3627;SDS011;1830;49.000;12.074;2023-07-16T12:29:48;5.68;;;3.65;;
3627;SDS011;1830;49.000;12.074;2023-07-16T12:32:17;6.15;;;3.17;;
3627;SDS011;1830;49.000;12.074;2023-07-16T12:34:45;3.50;;;3.20;;
3627;SDS011;1830;49.000;12.074;2023-07-16T12:37:11;11.32;;;3.85;;
3627;SDS011;1830;49.000;12.074;2023-07-16T12:39:38;13.40;;;3.05;;
3627;SDS011;1830;49.000;12.074;2023-07-16T12:42:07;4.57;;;2.95;;
3627;SDS011;1830;49.000;12.074;2023-07-16T12:44:33;5.07;;;3.40;;
3627;SDS011;1830;49.000;12.074;2023-07-16T12:47:00;4.70;;;3.35;;
3627;SDS011;1830;49.000;12.074;2023-07-16T12:49:27;3.67;;;3.38;;
3627;SDS011;1830;49.000;12.074;2023-07-16T12:51:54;3.38;;;3.03;;
3627;SDS011;1830;49.000;12.074;2023-07-16T12:54:21;3.28;;;2.97;;
3627;SDS011;1830;49.000;12.074;2023-07-16T12:56:48;3.05;;;2.70;;
3627;SDS011;1830;49.000;12.074;2023-07-16T12:59:16;3.88;;;3.47;;
3627;SDS011;1830;49.000;12.074;2023-07-16T13:01:43;6.15;;;3.70;;
3627;SDS011;1830;49.000;12.074;2023-07-16T13:04:10;4.47;;;3.60;;
3627;SDS011;1830;49.000;12.074;2023-07-16T13:06:36;5.35;;;3.60;;
3627;SDS011;1830;49.000;12.074;2023-07-16T13:09:03;3.45;;;3.13;;
3627;SDS011;1830;49.000;12.074;2023-07-16T13:11:30;3.33;;;3.03;;
3627;SDS011;1830;49.000;12.074;2023-07-16T13:13:57;5.50;;;3.35;;
3627;SDS011;1830;49.000;12.074;2023-07-16T13:16:25;2.90;;;2.70;;
3627;SDS011;1830;49.000;12.074;2023-07-16T13:18:52;4.05;;;3.05;;
3627;SDS011;1830;49.000;12.074;2023-07-16T13:21:19;3.45;;;3.13;;
3627;SDS011;1830;49.000;12.074;2023-07-16T13:23:46;5.85;;;3.72;;
3627;SDS011;1830;49.000;12.074;2023-07-16T13:26:12;5.15;;;3.70;;
3627;SDS011;1830;49.000;12.074;2023-07-16T13:28:39;4.50;;;3.58;;
3627;SDS011;1830;49.000;12.074;2023-07-16T13:31:06;4.90;;;3.22;;
3627;SDS011;1830;49.000;12.074;2023-07-16T13:33:34;4.93;;;3.50;;
3627;SDS011;1830;49.000;12.074;2023-07-16T13:36:01;4.53;;;3.47;;
3627;SDS011;1830;49.000;12.074;2023-07-16T13:38:29;3.75;;;3.45;;
3627;SDS011;1830;49.000;12.074;2023-07-16T13:40:56;4.00;;;3.47;;
3627;SDS011;1830;49.000;12.074;2023-07-16T13:43:23;3.35;;;3.15;;
3627;SDS011;1830;49.000;12.074;2023-07-16T13:45:50;4.50;;;3.17;;
3627;SDS011;1830;49.000;12.074;2023-07-16T13:48:17;6.28;;;3.70;;
3627;SDS011;1830;49.000;12.074;2023-07-16T13:50:45;3.75;;;3.42;;
3627;SDS011;1830;49.000;12.074;2023-07-16T13:53:11;9.82;;;3.40;;
3627;SDS011;1830;49.000;12.074;2023-07-16T13:55:38;5.05;;;3.60;;
3627;SDS011;1830;49.000;12.074;2023-07-16T13:58:05;6.90;;;3.47;;
3627;SDS011;1830;49.000;12.074;2023-07-16T14:00:32;4.40;;;4.00;;
3627;SDS011;1830;49.000;12.074;2023-07-16T14:02:59;4.80;;;3.47;;
3627;SDS011;1830;49.000;12.074;2023-07-16T14:05:25;5.10;;;3.20;;
3627;SDS011;1830;49.000;12.074;2023-07-16T14:07:54;4.35;;;3.33;;
3627;SDS011;1830;49.000;12.074;2023-07-16T14:10:21;9.77;;;3.17;;
3627;SDS011;1830;49.000;12.074;2023-07-16T14:12:47;4.47;;;3.13;;
3627;SDS011;1830;49.000;12.074;2023-07-16T14:15:14;4.38;;;3.65;;
3627;SDS011;1830;49.000;12.074;2023-07-16T14:17:41;3.80;;;3.47;;
3627;SDS011;1830;49.000;12.074;2023-07-16T14:20:08;12.30;;;3.67;;
3627;SDS011;1830;49.000;12.074;2023-07-16T14:22:36;3.42;;;3.13;;
3627;SDS011;1830;49.000;12.074;2023-07-16T14:25:05;8.20;;;3.58;;
3627;SDS011;1830;49.000;12.074;2023-07-16T14:27:34;3.88;;;3.58;;
3627;SDS011;1830;49.000;12.074;2023-07-16T14:30:01;4.35;;;4.05;;
3627;SDS011;1830;49.000;12.074;2023-07-16T14:32:27;3.83;;;2.97;;
3627;SDS011;1830;49.000;12.074;2023-07-16T14:34:56;3.20;;;2.95;;
3627;SDS011;1830;49.000;12.074;2023-07-16T14:37:23;3.38;;;3.03;;
3627;SDS011;1830;49.000;12.074;2023-07-16T14:39:50;3.45;;;3.15;;
3627;SDS011;1830;49.000;12.074;2023-07-16T14:42:18;3.28;;;3.08;;
3627;SDS011;1830;49.000;12.074;2023-07-16T14:44:45;3.30;;;3.00;;
3627;SDS011;1830;49.000;12.074;2023-07-16T14:47:12;5.05;;;2.80;;
3627;SDS011;1830;49.000;12.074;2023-07-16T14:49:38;3.88;;;3.35;;
3627;SDS011;1830;49.000;12.074;2023-07-16T14:52:05;4.13;;;3.17;;
3627;SDS011;1830;49.000;12.074;2023-07-16T14:54:32;4.53;;;3.92;;
3627;SDS011;1830;49.000;12.074;2023-07-16T14:57:01;4.90;;;3.33;;
3627;SDS011;1830;49.000;12.074;2023-07-16T14:59:29;3.83;;;3.53;;
3627;SDS011;1830;49.000;12.074;2023-07-16T15:01:56;4.57;;;3.65;;
3627;SDS011;1830;49.000;12.074;2023-07-16T15:04:23;7.05;;;3.35;;